createdAt,value
2023-03-28T00:00:33.962Z,11.17
2023-03-28T00:03:01.282Z,11.40
2023-03-28T00:05:29.507Z,11.57
2023-03-28T00:07:56.866Z,12.43
2023-03-28T00:10:24.181Z,12.40
2023-03-28T00:12:51.326Z,24.53
2023-03-28T00:15:18.500Z,12.57
2023-03-28T00:17:45.773Z,14.57
2023-03-28T00:20:14.392Z,11.90
2023-03-28T00:22:41.519Z,11.47
2023-03-28T00:25:09.139Z,13.13
2023-03-28T00:27:36.817Z,11.50
2023-03-28T00:30:05.082Z,11.77
2023-03-28T00:32:32.590Z,11.47
2023-03-28T00:34:59.754Z,11.37
2023-03-28T00:37:26.894Z,11.07
2023-03-28T00:39:54.141Z,10.67
2023-03-28T00:42:22.046Z,11.23
2023-03-28T00:44:53.538Z,11.17
2023-03-28T00:47:40.933Z,10.73
2023-03-28T00:50:08.971Z,11.37
2023-03-28T00:52:40.950Z,10.57
2023-03-28T00:55:09.216Z,9.30
2023-03-28T00:57:38.334Z,9.67
2023-03-28T01:00:12.330Z,18.83
2023-03-28T01:02:43.140Z,18.33
2023-03-28T01:05:10.911Z,13.90
2023-03-28T01:07:39.894Z,13.40
2023-03-28T01:10:08.274Z,10.00
2023-03-28T01:12:35.414Z,9.67
2023-03-28T01:15:02.857Z,8.00
2023-03-28T01:17:30.793Z,8.87
2023-03-28T01:20:04.239Z,8.60
2023-03-28T01:23:00.551Z,9.07
2023-03-28T01:25:27.739Z,8.07
2023-03-28T01:28:03.400Z,8.67
2023-03-28T01:30:36.925Z,7.67
2023-03-28T01:33:22.850Z,8.57
2023-03-28T01:35:56.247Z,8.00
2023-03-28T01:38:29.645Z,7.90
2023-03-28T01:41:03.057Z,9.73
2023-03-28T01:43:36.253Z,11.17
2023-03-28T01:46:03.618Z,16.20
2023-03-28T01:48:40.206Z,20.17
2023-03-28T01:51:12.101Z,19.33
2023-03-28T01:53:46.693Z,18.37
2023-03-28T01:56:14.140Z,20.83
2023-03-28T01:58:46.483Z,23.10
2023-03-28T02:01:16.721Z,19.00
2023-03-28T02:03:45.704Z,19.00
2023-03-28T02:06:12.824Z,16.10
2023-03-28T02:08:41.324Z,12.90
2023-03-28T02:11:09.563Z,11.70
2023-03-28T02:13:57.059Z,14.90
2023-03-28T02:16:24.425Z,17.00
2023-03-28T02:18:53.929Z,13.67
2023-03-28T02:21:22.314Z,13.43
2023-03-28T02:23:50.798Z,18.30
2023-03-28T02:26:18.360Z,34.93
2023-03-28T02:28:46.213Z,48.73
2023-03-28T02:31:16.436Z,37.53
2023-03-28T02:33:47.400Z,32.17
2023-03-28T02:36:33.315Z,27.23
2023-03-28T02:39:11.586Z,26.60
2023-03-28T02:41:59.015Z,25.37
2023-03-28T02:44:36.687Z,22.37
2023-03-28T02:47:03.820Z,15.60
2023-03-28T02:49:50.742Z,12.47
2023-03-28T02:52:21.341Z,13.00
2023-03-28T02:54:48.457Z,18.53
2023-03-28T02:57:28.222Z,20.50
2023-03-28T02:59:56.616Z,18.20
2023-03-28T03:02:25.082Z,14.33
2023-03-28T03:04:52.328Z,16.63
2023-03-28T03:07:19.571Z,15.30
2023-03-28T03:09:46.947Z,15.07
2023-03-28T03:12:14.401Z,15.47
2023-03-28T03:14:42.080Z,13.60
2023-03-28T03:17:09.258Z,9.87
2023-03-28T03:19:36.454Z,14.33
2023-03-28T03:22:03.723Z,13.63
2023-03-28T03:24:32.136Z,10.90
2023-03-28T03:26:59.292Z,10.57
2023-03-28T03:29:26.397Z,15.33
2023-03-28T03:32:05.868Z,11.07
2023-03-28T03:34:33.893Z,12.10
2023-03-28T03:37:02.420Z,16.77
2023-03-28T03:39:29.729Z,18.70
2023-03-28T03:41:57.405Z,13.83
2023-03-28T03:44:24.701Z,12.40
2023-03-28T03:46:51.882Z,12.70
2023-03-28T03:49:19.014Z,13.07
2023-03-28T03:51:46.143Z,10.70
2023-03-28T03:54:13.308Z,8.93
2023-03-28T03:56:40.646Z,8.63
2023-03-28T03:59:07.818Z,8.93
2023-03-28T04:01:34.968Z,8.93
2023-03-28T04:04:02.286Z,10.83
2023-03-28T04:06:29.710Z,9.53
2023-03-28T04:08:56.897Z,9.00
2023-03-28T04:11:24.029Z,11.27
2023-03-28T04:13:51.154Z,9.13
2023-03-28T04:16:20.989Z,9.57
2023-03-28T04:18:50.920Z,8.87
2023-03-28T04:21:18.714Z,10.87
2023-03-28T04:23:48.318Z,8.20
2023-03-28T04:26:20.602Z,10.17
2023-03-28T04:28:48.216Z,9.03
2023-03-28T04:31:15.438Z,8.57
2023-03-28T04:33:45.320Z,7.60
2023-03-28T04:36:12.548Z,12.80
2023-03-28T04:38:41.753Z,7.83
2023-03-28T04:41:09.065Z,6.60
2023-03-28T04:43:36.254Z,7.23
2023-03-28T04:46:03.856Z,6.63
2023-03-28T04:48:31.279Z,6.23
2023-03-28T04:50:58.428Z,6.07
2023-03-28T04:53:25.609Z,7.10
2023-03-28T04:55:53.301Z,10.80
2023-03-28T04:58:21.174Z,5.40
2023-03-28T05:00:49.658Z,3.97
2023-03-28T05:03:18.589Z,5.63
2023-03-28T05:05:46.190Z,5.33
2023-03-28T05:08:13.546Z,4.60
2023-03-28T05:10:40.951Z,6.50
2023-03-28T05:13:08.264Z,5.57
2023-03-28T05:15:35.405Z,6.83
2023-03-28T05:18:03.159Z,9.67
2023-03-28T05:20:30.609Z,6.10
2023-03-28T05:22:57.868Z,6.00
2023-03-28T05:25:25.168Z,4.87
2023-03-28T05:27:52.366Z,4.70
2023-03-28T05:30:19.544Z,3.70
2023-03-28T05:32:47.029Z,3.83
2023-03-28T05:35:14.606Z,4.00
2023-03-28T05:37:43.547Z,3.53
2023-03-28T05:40:13.228Z,3.87
2023-03-28T05:42:40.441Z,4.80
2023-03-28T05:45:08.039Z,4.60
2023-03-28T05:47:35.331Z,4.80
2023-03-28T05:50:02.831Z,5.10
2023-03-28T05:52:30.043Z,5.53
2023-03-28T05:54:57.490Z,5.60
2023-03-28T05:57:25.221Z,5.03
2023-03-28T05:59:52.421Z,5.07
2023-03-28T06:02:20.813Z,5.90
2023-03-28T06:04:48.696Z,8.07
2023-03-28T06:07:16.633Z,8.63
2023-03-28T06:09:43.841Z,7.50
2023-03-28T06:12:11.098Z,16.90
2023-03-28T06:14:38.263Z,18.20
2023-03-28T06:17:07.796Z,14.53
2023-03-28T06:19:35.145Z,6.10
2023-03-28T06:22:03.023Z,6.43
2023-03-28T06:24:30.235Z,5.60
2023-03-28T06:26:57.492Z,4.57
2023-03-28T06:29:24.625Z,5.70
2023-03-28T06:31:51.794Z,5.50
2023-03-28T06:34:19.168Z,7.43
2023-03-28T06:36:46.351Z,7.07
2023-03-28T06:39:13.602Z,5.73
2023-03-28T06:41:40.787Z,6.37
2023-03-28T06:44:07.964Z,8.60
2023-03-28T06:46:35.282Z,10.83
2023-03-28T06:49:02.828Z,13.83
2023-03-28T06:51:29.989Z,11.27
2023-03-28T06:53:57.188Z,6.97
2023-03-28T06:56:24.379Z,4.73
2023-03-28T06:58:51.555Z,4.43
2023-03-28T07:01:18.984Z,13.03
2023-03-28T07:03:46.415Z,4.57
2023-03-28T07:06:13.751Z,4.70
2023-03-28T07:08:41.076Z,4.20
2023-03-28T07:11:08.321Z,4.13
2023-03-28T07:13:35.585Z,3.60
2023-03-28T07:16:12.701Z,4.60
2023-03-28T07:18:41.219Z,3.53
2023-03-28T07:21:12.287Z,4.83
2023-03-28T07:23:39.582Z,4.90
2023-03-28T07:26:07.297Z,4.27
2023-03-28T07:28:34.451Z,5.67
2023-03-28T07:31:02.558Z,4.77
2023-03-28T07:33:36.198Z,4.93
2023-03-28T07:36:12.123Z,4.83
2023-03-28T07:38:39.384Z,3.77
2023-03-28T07:41:06.666Z,4.00
2023-03-28T07:43:34.053Z,3.97
2023-03-28T07:46:02.292Z,3.63
2023-03-28T07:48:29.757Z,4.00
2023-03-28T07:50:57.299Z,3.77
2023-03-28T07:53:24.565Z,4.37
2023-03-28T07:55:54.955Z,4.57
2023-03-28T07:58:23.088Z,4.63
2023-03-28T08:00:50.628Z,5.00
2023-03-28T08:03:18.772Z,4.30
2023-03-28T08:05:51.715Z,6.03
2023-03-28T08:08:19.869Z,5.83
2023-03-28T08:10:50.976Z,3.07
2023-03-28T08:13:19.606Z,1.60
2023-03-28T08:15:46.771Z,3.27
2023-03-28T08:18:17.748Z,1.97
2023-03-28T08:20:44.880Z,2.50
2023-03-28T08:23:12.066Z,2.87
2023-03-28T08:25:39.240Z,2.90
2023-03-28T08:28:06.692Z,2.60
2023-03-28T08:30:33.833Z,3.10
2023-03-28T08:33:04.096Z,2.97
2023-03-28T08:35:34.324Z,2.80
2023-03-28T08:38:01.562Z,2.23
2023-03-28T08:40:28.972Z,2.43
2023-03-28T08:43:07.692Z,2.50
2023-03-28T08:45:55.389Z,2.40
2023-03-28T08:48:32.473Z,3.20
2023-03-28T08:51:20.057Z,4.87
2023-03-28T08:53:48.840Z,9.10
2023-03-28T08:56:16.355Z,3.77
2023-03-28T08:59:04.725Z,3.40
2023-03-28T09:01:32.842Z,3.90
2023-03-28T09:04:00.775Z,3.30
2023-03-28T09:06:38.227Z,2.80
2023-03-28T09:09:20.427Z,3.07
2023-03-28T09:11:47.578Z,3.90
2023-03-28T09:14:19.111Z,2.50
2023-03-28T09:16:55.373Z,3.00
2023-03-28T09:19:36.899Z,3.57
2023-03-28T09:22:19.997Z,4.03
2023-03-28T09:24:56.503Z,2.93
2023-03-28T09:27:25.291Z,2.90
2023-03-28T09:29:52.784Z,3.57
2023-03-28T09:32:30.890Z,10.33
2023-03-28T09:34:58.062Z,4.47
2023-03-28T09:37:28.239Z,2.60
2023-03-28T09:39:55.954Z,4.07
2023-03-28T09:42:47.143Z,2.80
2023-03-28T09:45:26.947Z,3.87
2023-03-28T09:47:54.148Z,3.70
2023-03-28T09:50:21.872Z,5.00
2023-03-28T09:52:49.579Z,3.50
2023-03-28T09:55:23.528Z,2.80
2023-03-28T09:58:06.136Z,3.80
2023-03-28T10:00:43.248Z,3.90
2023-03-28T10:03:29.223Z,2.93
2023-03-28T10:06:16.619Z,2.93
2023-03-28T10:08:43.820Z,3.27
2023-03-28T10:11:14.873Z,3.60
2023-03-28T10:13:42.939Z,2.90
2023-03-28T10:16:13.223Z,3.20
2023-03-28T10:18:40.722Z,3.23
2023-03-28T10:21:10.305Z,5.93
2023-03-28T10:23:37.752Z,6.27
2023-03-28T10:26:04.953Z,5.10
2023-03-28T10:28:33.379Z,3.67
2023-03-28T10:31:01.728Z,3.77
2023-03-28T10:33:31.681Z,5.67
2023-03-28T10:35:58.897Z,3.07
2023-03-28T10:38:27.186Z,5.20
2023-03-28T10:40:59.830Z,3.80
2023-03-28T10:43:37.608Z,3.90
2023-03-28T10:46:06.502Z,4.83
2023-03-28T10:48:33.982Z,2.87
2023-03-28T10:51:02.006Z,2.80
2023-03-28T10:53:38.740Z,3.30
2023-03-28T10:56:15.081Z,5.50
2023-03-28T10:58:44.539Z,4.07
2023-03-28T11:01:21.057Z,3.57
2023-03-28T11:03:48.500Z,3.40
2023-03-28T11:06:21.972Z,3.00
2023-03-28T11:08:49.150Z,57.13
2023-03-28T11:11:37.674Z,2.30
2023-03-28T11:14:17.101Z,2.67
2023-03-28T11:16:53.041Z,2.80
2023-03-28T11:19:23.243Z,3.30
2023-03-28T11:22:05.658Z,2.97
2023-03-28T11:24:51.543Z,4.33
2023-03-28T11:27:37.500Z,2.70
2023-03-28T11:30:15.830Z,2.27
2023-03-28T11:33:01.784Z,2.07
2023-03-28T11:35:32.864Z,2.43
2023-03-28T11:38:09.343Z,3.03
2023-03-28T11:40:55.075Z,4.20
2023-03-28T11:43:28.321Z,3.93
2023-03-28T11:45:56.388Z,2.80
2023-03-28T11:48:26.620Z,3.30
2023-03-28T11:51:03.375Z,2.50
2023-03-28T11:53:32.003Z,2.87
2023-03-28T11:56:02.957Z,3.53
2023-03-28T11:58:30.278Z,2.57
2023-03-28T12:00:57.489Z,2.93
2023-03-28T12:03:30.977Z,2.83
2023-03-28T12:06:04.598Z,2.80
2023-03-28T12:08:33.893Z,3.30
2023-03-28T12:11:05.945Z,2.90
2023-03-28T12:14:01.427Z,23.27
2023-03-28T12:16:40.707Z,4.90
2023-03-28T12:19:10.903Z,3.83
2023-03-28T12:21:38.753Z,5.03
2023-03-28T12:24:18.232Z,10.63
2023-03-28T12:26:56.105Z,3.17
2023-03-28T12:29:56.786Z,19.00
2023-03-28T12:32:45.284Z,50.70
2023-03-28T12:35:14.555Z,17.00
2023-03-28T12:37:54.283Z,10.30
2023-03-28T12:40:24.585Z,7.83
2023-03-28T12:42:52.004Z,7.37
2023-03-28T12:45:39.492Z,3.90
2023-03-28T12:48:07.989Z,10.13
2023-03-28T12:50:40.993Z,10.97
2023-03-28T12:53:08.375Z,5.43
2023-03-28T12:55:35.635Z,4.87
2023-03-28T12:58:14.695Z,3.77
2023-03-28T13:00:47.926Z,3.53
2023-03-28T13:03:41.361Z,3.27
2023-03-28T13:06:12.081Z,4.30
2023-03-28T13:08:48.506Z,3.40
2023-03-28T13:11:18.525Z,4.63
2023-03-28T13:13:59.226Z,6.20
2023-03-28T13:16:27.279Z,3.10
2023-03-28T13:19:07.718Z,7.50
2023-03-28T13:21:51.382Z,7.33
2023-03-28T13:24:27.834Z,39.23
2023-03-28T13:26:58.622Z,11.77
2023-03-28T13:29:25.870Z,30.60
2023-03-28T13:31:53.118Z,11.73
2023-03-28T13:34:25.101Z,16.43
2023-03-28T13:36:55.600Z,16.90
2023-03-28T13:39:26.153Z,12.77
2023-03-28T13:41:55.206Z,25.07
2023-03-28T13:44:28.433Z,11.90
2023-03-28T13:46:55.764Z,6.33
2023-03-28T13:49:31.851Z,3.90
2023-03-28T13:52:15.599Z,4.70
2023-03-28T13:54:42.743Z,3.30
2023-03-28T13:57:17.598Z,3.03
2023-03-28T13:59:58.600Z,4.33
2023-03-28T14:02:33.475Z,3.73
2023-03-28T14:05:19.976Z,2.73
2023-03-28T14:07:47.403Z,2.87
2023-03-28T14:10:28.765Z,2.97
2023-03-28T14:12:56.840Z,5.40
2023-03-28T14:15:26.033Z,3.80
2023-03-28T14:17:53.196Z,7.37
2023-03-28T14:20:20.414Z,32.27
2023-03-28T14:23:00.042Z,4.40
2023-03-28T14:25:28.439Z,3.90
2023-03-28T14:27:56.269Z,3.17
2023-03-28T14:30:27.563Z,4.37
2023-03-28T14:33:01.618Z,4.57
2023-03-28T14:35:32.458Z,6.20
2023-03-28T14:38:01.001Z,7.07
2023-03-28T14:40:32.519Z,6.83
2023-03-28T14:43:00.628Z,6.20
2023-03-28T14:45:28.570Z,7.87
2023-03-28T14:47:56.562Z,6.10
2023-03-28T14:50:24.371Z,11.23
2023-03-28T14:52:51.551Z,3.40
2023-03-28T14:55:19.929Z,3.70
2023-03-28T14:57:48.081Z,5.57
2023-03-28T15:00:16.328Z,4.10
2023-03-28T15:02:43.554Z,7.27
2023-03-28T15:05:11.015Z,6.10
2023-03-28T15:07:38.300Z,5.37
2023-03-28T15:10:06.616Z,6.73
2023-03-28T15:12:34.498Z,10.63
2023-03-28T15:15:01.639Z,3.57
2023-03-28T15:17:28.828Z,7.03
2023-03-28T15:19:58.288Z,6.23
2023-03-28T15:22:27.249Z,5.80
2023-03-28T15:24:55.289Z,6.07
2023-03-28T15:27:26.992Z,24.50
2023-03-28T15:29:54.171Z,21.87
2023-03-28T15:32:21.417Z,17.40
2023-03-28T15:34:49.332Z,12.27
2023-03-28T15:37:19.573Z,5.33
2023-03-28T15:39:49.558Z,5.63
2023-03-28T15:42:19.859Z,6.67
2023-03-28T15:44:58.948Z,13.73
2023-03-28T15:47:26.693Z,8.17
2023-03-28T15:50:01.193Z,20.40
2023-03-28T15:52:29.791Z,18.87
2023-03-28T15:54:56.986Z,7.53
2023-03-28T15:57:25.637Z,5.07
2023-03-28T15:59:53.396Z,4.60
2023-03-28T16:02:23.657Z,6.37
2023-03-28T16:04:59.764Z,7.03
2023-03-28T16:07:27.118Z,4.97
2023-03-28T16:09:54.372Z,8.17
2023-03-28T16:12:21.574Z,8.83
2023-03-28T16:14:52.933Z,7.47
2023-03-28T16:17:24.786Z,6.37
2023-03-28T16:19:52.001Z,11.37
2023-03-28T16:22:21.041Z,4.87
2023-03-28T16:24:49.210Z,12.30
2023-03-28T16:27:16.593Z,12.80
2023-03-28T16:29:43.904Z,4.63
2023-03-28T16:32:12.425Z,7.90
2023-03-28T16:34:39.980Z,23.90
2023-03-28T16:37:08.920Z,28.70
2023-03-28T16:39:37.419Z,19.63
2023-03-28T16:42:05.390Z,25.07
2023-03-28T16:44:32.626Z,31.43
2023-03-28T16:47:00.512Z,28.73
2023-03-28T16:49:27.673Z,20.40
2023-03-28T16:51:55.718Z,15.40
2023-03-28T16:54:23.351Z,14.23
2023-03-28T16:56:50.941Z,17.20
2023-03-28T16:59:18.222Z,7.63
2023-03-28T17:01:46.393Z,18.33
2023-03-28T17:04:13.773Z,12.77
2023-03-28T17:06:40.932Z,9.33
2023-03-28T17:09:08.597Z,15.67
2023-03-28T17:11:36.092Z,9.23
2023-03-28T17:14:03.760Z,6.30
2023-03-28T17:16:31.524Z,7.50
2023-03-28T17:18:58.701Z,7.20
2023-03-28T17:21:25.873Z,5.20
2023-03-28T17:23:53.259Z,5.53
2023-03-28T17:26:20.529Z,6.17
2023-03-28T17:28:47.734Z,4.87
2023-03-28T17:31:16.816Z,4.60
2023-03-28T17:33:44.337Z,4.77
2023-03-28T17:36:14.460Z,8.17
2023-03-28T17:38:42.401Z,6.43
2023-03-28T17:41:09.547Z,8.87
2023-03-28T17:43:36.718Z,7.10
2023-03-28T17:46:04.160Z,5.13
2023-03-28T17:48:31.470Z,7.40
2023-03-28T17:50:58.627Z,6.80
2023-03-28T17:53:26.164Z,8.13
2023-03-28T17:55:53.309Z,10.27
2023-03-28T17:58:20.525Z,7.03
2023-03-28T18:00:47.720Z,11.13
2023-03-28T18:03:14.992Z,10.70
2023-03-28T18:05:42.202Z,11.20
2023-03-28T18:08:09.411Z,11.60
2023-03-28T18:10:38.840Z,7.80
2023-03-28T18:13:06.085Z,7.50
2023-03-28T18:15:33.375Z,7.23
2023-03-28T18:18:02.299Z,8.47
2023-03-28T18:20:29.554Z,10.67
2023-03-28T18:22:56.757Z,16.67
2023-03-28T18:25:23.938Z,15.17
2023-03-28T18:27:51.112Z,10.37
2023-03-28T18:30:18.410Z,12.80
2023-03-28T18:32:46.419Z,18.47
2023-03-28T18:35:13.558Z,13.77
2023-03-28T18:37:40.926Z,12.70
2023-03-28T18:40:11.008Z,9.33
2023-03-28T18:42:38.221Z,10.53
2023-03-28T18:45:05.506Z,12.03
2023-03-28T18:47:33.109Z,9.07
2023-03-28T18:50:00.671Z,12.90
2023-03-28T18:52:29.766Z,15.40
2023-03-28T18:54:57.010Z,9.67
2023-03-28T18:57:24.276Z,15.80
2023-03-28T18:59:55.688Z,20.17
2023-03-28T19:02:22.933Z,23.90
2023-03-28T19:04:50.226Z,24.00
2023-03-28T19:07:17.554Z,12.70
2023-03-28T19:09:44.753Z,10.60
2023-03-28T19:12:12.427Z,10.23
2023-03-28T19:14:39.768Z,12.83
2023-03-28T19:17:07.267Z,17.13
2023-03-28T19:19:37.380Z,13.13
2023-03-28T19:22:06.428Z,7.33
2023-03-28T19:24:33.839Z,9.27
2023-03-28T19:27:02.078Z,8.30
2023-03-28T19:29:32.101Z,10.70
2023-03-28T19:31:59.323Z,8.13
2023-03-28T19:34:27.933Z,7.63
2023-03-28T19:36:55.153Z,8.83
2023-03-28T19:39:22.498Z,10.00
2023-03-28T19:41:49.636Z,15.03
2023-03-28T19:44:16.815Z,14.93
2023-03-28T19:46:44.208Z,25.37
2023-03-28T19:49:11.630Z,23.97
2023-03-28T19:51:38.793Z,14.57
2023-03-28T19:54:06.102Z,41.67
2023-03-28T19:56:33.459Z,78.23
2023-03-28T19:59:00.627Z,46.47
2023-03-28T20:01:27.867Z,45.07
2023-03-28T20:03:55.093Z,22.87
2023-03-28T20:06:22.405Z,11.10
2023-03-28T20:08:49.662Z,11.30
2023-03-28T20:11:16.955Z,41.27
2023-03-28T20:13:44.298Z,13.07
2023-03-28T20:16:11.983Z,15.53
2023-03-28T20:18:39.268Z,13.57
2023-03-28T20:21:07.311Z,12.97
2023-03-28T20:23:34.485Z,10.03
2023-03-28T20:26:01.796Z,10.40
2023-03-28T20:28:33.885Z,7.40
2023-03-28T20:31:01.316Z,7.33
2023-03-28T20:33:28.663Z,7.70
2023-03-28T20:35:56.762Z,7.50
2023-03-28T20:38:24.629Z,6.37
2023-03-28T20:40:51.813Z,6.63
2023-03-28T20:43:24.120Z,6.80
2023-03-28T20:45:53.951Z,8.60
2023-03-28T20:48:35.016Z,9.10
2023-03-28T20:51:06.128Z,19.33
2023-03-28T20:53:33.618Z,18.70
2023-03-28T20:56:04.704Z,23.53
2023-03-28T20:58:32.378Z,15.93
2023-03-28T21:01:00.415Z,11.77
2023-03-28T21:03:47.125Z,11.97
2023-03-28T21:06:15.695Z,18.10
2023-03-28T21:08:45.768Z,23.17
2023-03-28T21:11:13.922Z,16.90
2023-03-28T21:13:41.214Z,17.57
2023-03-28T21:16:08.662Z,25.00
2023-03-28T21:18:37.637Z,23.73
2023-03-28T21:21:07.283Z,25.93
2023-03-28T21:23:34.903Z,23.13
2023-03-28T21:26:02.102Z,29.43
2023-03-28T21:28:29.510Z,22.73
2023-03-28T21:30:57.546Z,41.87
2023-03-28T21:33:24.762Z,33.47
2023-03-28T21:35:52.071Z,34.90
2023-03-28T21:38:19.429Z,30.20
2023-03-28T21:40:49.562Z,41.90
2023-03-28T21:43:16.996Z,33.23
2023-03-28T21:45:45.155Z,25.20
2023-03-28T21:48:12.485Z,30.13
2023-03-28T21:50:40.890Z,24.50
2023-03-28T21:53:11.289Z,23.43
2023-03-28T21:55:38.626Z,22.40
2023-03-28T21:58:05.803Z,18.23
2023-03-28T22:00:32.958Z,16.10
2023-03-28T22:03:00.318Z,16.13
2023-03-28T22:05:29.624Z,16.23
2023-03-28T22:07:57.354Z,18.23
2023-03-28T22:10:29.380Z,18.43
2023-03-28T22:12:58.899Z,20.63
2023-03-28T22:15:26.227Z,18.60
2023-03-28T22:17:58.241Z,18.67
2023-03-28T22:20:26.136Z,18.10
2023-03-28T22:22:53.280Z,16.17
2023-03-28T22:25:22.554Z,24.93
2023-03-28T22:27:49.802Z,17.47
2023-03-28T22:30:17.087Z,16.17
2023-03-28T22:32:44.420Z,16.30
2023-03-28T22:35:12.128Z,13.57
2023-03-28T22:37:39.366Z,13.20
2023-03-28T22:40:08.390Z,13.33
2023-03-28T22:42:36.767Z,12.53
2023-03-28T22:45:04.245Z,11.90
2023-03-28T22:47:43.122Z,11.97
2023-03-28T22:50:11.711Z,13.33
2023-03-28T22:52:39.029Z,13.43
2023-03-28T22:55:06.454Z,14.40
2023-03-28T22:57:33.635Z,13.00
2023-03-28T23:00:01.746Z,14.37
2023-03-28T23:02:29.333Z,13.63
2023-03-28T23:04:57.098Z,13.77
2023-03-28T23:07:24.318Z,12.43
2023-03-28T23:09:51.993Z,13.03
2023-03-28T23:12:19.120Z,11.70
2023-03-28T23:14:46.738Z,10.57
2023-03-28T23:17:14.127Z,10.23
2023-03-28T23:19:41.247Z,10.90
2023-03-28T23:22:10.087Z,9.87
2023-03-28T23:24:37.949Z,12.80
2023-03-28T23:27:06.676Z,15.90
2023-03-28T23:29:34.142Z,10.53
2023-03-28T23:32:01.346Z,11.23
2023-03-28T23:34:28.535Z,11.27
2023-03-28T23:36:57.978Z,13.20
2023-03-28T23:39:25.233Z,13.03
2023-03-28T23:41:52.363Z,16.83
2023-03-28T23:44:19.553Z,13.00
2023-03-28T23:46:49.658Z,11.23
2023-03-28T23:49:17.475Z,9.77
2023-03-28T23:51:44.609Z,14.97
2023-03-28T23:54:12.597Z,13.03
2023-03-28T23:56:39.904Z,16.77
2023-03-28T23:59:07.788Z,16.03
